createdAt,value
2022-08-10T00:00:34.551Z,102367.34
2022-08-10T00:03:01.599Z,102366.03
2022-08-10T00:05:26.829Z,102368.16
2022-08-10T00:08:08.476Z,102372.28
2022-08-10T00:10:32.461Z,102371.28
2022-08-10T00:12:56.422Z,102366.09
2022-08-10T00:15:52.057Z,102367.16
2022-08-10T00:18:07.044Z,102371.72
2022-08-10T00:20:30.933Z,102368.41
2022-08-10T00:22:57.802Z,102370.25
2022-08-10T00:25:23.095Z,102371.75
2022-08-10T00:28:01.872Z,102361.28
2022-08-10T00:30:27.152Z,102368.13
2022-08-10T00:32:50.905Z,102365.81
2022-08-10T00:35:14.731Z,102365.22
2022-08-10T00:37:38.526Z,102361.91
2022-08-10T00:40:02.376Z,102357.72
2022-08-10T00:42:27.613Z,102356.88
2022-08-10T00:44:53.563Z,102353.66
2022-08-10T00:47:36.996Z,102346.53
2022-08-10T00:50:01.485Z,102348.06
2022-08-10T00:52:25.852Z,102340.53
2022-08-10T00:54:50.048Z,102342.91
2022-08-10T00:57:18.614Z,102336.88
2022-08-10T00:59:58.023Z,102339.72
2022-08-10T01:02:24.023Z,102339.72
2022-08-10T01:04:59.518Z,102336.28
2022-08-10T01:07:58.325Z,102339.03
2022-08-10T01:10:36.693Z,102342.00
2022-08-10T01:13:08.728Z,102335.38
2022-08-10T01:15:41.590Z,102341.09
2022-08-10T01:18:13.455Z,102344.63
2022-08-10T01:20:43.669Z,102340.84
2022-08-10T01:23:45.560Z,102347.13
2022-08-10T01:26:51.212Z,102347.50
2022-08-10T01:30:01.339Z,102340.97
2022-08-10T01:32:34.530Z,102340.38
2022-08-10T01:35:10.824Z,102333.22
2022-08-10T01:37:40.205Z,102342.34
2022-08-10T01:40:13.551Z,102337.03
2022-08-10T01:42:42.104Z,102334.56
2022-08-10T01:45:11.108Z,102345.56
2022-08-10T01:47:59.483Z,102338.28
2022-08-10T01:50:30.071Z,102332.00
2022-08-10T01:53:05.372Z,102334.22
2022-08-10T01:55:30.495Z,102340.16
2022-08-10T01:57:56.745Z,102322.88
2022-08-10T02:00:22.132Z,102329.31
2022-08-10T02:02:48.499Z,102333.00
2022-08-10T02:05:13.348Z,102321.19
2022-08-10T02:07:42.052Z,102326.38
2022-08-10T02:10:10.984Z,102329.59
2022-08-10T02:12:37.290Z,102331.28
2022-08-10T02:15:04.722Z,102325.16
2022-08-10T02:17:57.919Z,102339.91
2022-08-10T02:20:24.741Z,102336.47
2022-08-10T02:22:53.359Z,102336.97
2022-08-10T02:25:42.000Z,102331.53
2022-08-10T02:28:05.646Z,102331.06
2022-08-10T02:30:30.545Z,102326.63
2022-08-10T02:32:58.139Z,102326.38
2022-08-10T02:35:24.544Z,102333.53
2022-08-10T02:37:56.124Z,102333.78
2022-08-10T02:42:18.794Z,102334.13
2022-08-10T02:45:17.697Z,102324.41
2022-08-10T02:46:11.196Z,102329.47
2022-08-10T02:48:43.402Z,102332.41
2022-08-10T02:51:17.151Z,102326.13
2022-08-10T02:53:55.268Z,102323.66
2022-08-10T02:56:25.890Z,102326.13
2022-08-10T02:58:59.924Z,102330.81
2022-08-10T03:01:31.051Z,102331.81
2022-08-10T03:04:02.213Z,102333.75
2022-08-10T03:06:34.399Z,102334.00
2022-08-10T03:09:00.578Z,102333.38
2022-08-10T03:12:35.897Z,102334.25
2022-08-10T03:14:15.159Z,102330.19
2022-08-10T03:16:39.759Z,102328.44
2022-08-10T03:19:07.459Z,102325.50
2022-08-10T03:21:53.315Z,102330.66
2022-08-10T03:24:33.312Z,102327.59
2022-08-10T03:26:58.207Z,102331.53
2022-08-10T03:29:24.220Z,102334.47
2022-08-10T03:31:48.761Z,102337.19
2022-08-10T03:34:22.243Z,102336.09
2022-08-10T03:36:56.961Z,102344.34
2022-08-10T03:39:20.778Z,102338.03
2022-08-10T03:41:53.547Z,102346.31
2022-08-10T03:44:34.452Z,102341.88
2022-08-10T03:47:02.113Z,102345.31
2022-08-10T03:49:29.438Z,102341.13
2022-08-10T03:51:53.414Z,102339.28
2022-08-10T03:54:17.836Z,102339.78
2022-08-10T03:56:42.756Z,102343.59
2022-08-10T03:59:08.953Z,102339.16
2022-08-10T04:02:45.981Z,102342.34
2022-08-10T04:04:22.835Z,102346.16
2022-08-10T04:06:51.511Z,102347.06
2022-08-10T04:09:18.863Z,102348.94
2022-08-10T04:11:43.209Z,102356.06
2022-08-10T04:14:07.003Z,102354.00
2022-08-10T04:16:32.932Z,102358.97
2022-08-10T04:18:56.777Z,102363.66
2022-08-10T04:21:27.909Z,102360.22
2022-08-10T04:23:53.825Z,102362.78
2022-08-10T04:26:18.122Z,102354.66
2022-08-10T04:28:42.739Z,102357.63
2022-08-10T04:31:08.011Z,102358.34
2022-08-10T04:33:33.511Z,102360.59
2022-08-10T04:35:58.416Z,102362.56
2022-08-10T04:38:23.708Z,102361.31
2022-08-10T04:40:49.204Z,102366.25
2022-08-10T04:43:13.664Z,102366.25
2022-08-10T04:45:49.927Z,102364.56
2022-08-10T04:48:42.743Z,102355.84
2022-08-10T04:50:59.702Z,102368.03
2022-08-10T04:53:24.029Z,102365.94
2022-08-10T04:55:49.161Z,102361.03
2022-08-10T04:58:13.203Z,102367.06
2022-08-10T05:00:37.145Z,102366.69
2022-08-10T05:03:00.863Z,102368.41
2022-08-10T05:05:24.688Z,102369.16
2022-08-10T05:07:53.873Z,102371.72
2022-08-10T05:10:20.931Z,102377.13
2022-08-10T05:12:47.108Z,102379.25
2022-08-10T05:15:13.543Z,102374.44
2022-08-10T05:17:38.546Z,102375.16
2022-08-10T05:20:06.524Z,102382.09
2022-08-10T05:22:31.085Z,102381.19
2022-08-10T05:24:54.843Z,102376.47
2022-08-10T05:27:18.556Z,102381.38
2022-08-10T05:29:43.768Z,102377.66
2022-08-10T05:32:24.957Z,102389.75
2022-08-10T05:34:48.632Z,102387.59
2022-08-10T05:38:10.693Z,102381.50
2022-08-10T05:39:57.646Z,102388.81
2022-08-10T05:42:21.773Z,102390.13
2022-08-10T05:44:47.322Z,102392.94
2022-08-10T05:47:12.881Z,102389.72
2022-08-10T05:49:37.320Z,102389.69
2022-08-10T05:52:01.031Z,102392.28
2022-08-10T05:54:26.103Z,102390.22
2022-08-10T05:56:55.753Z,102386.28
2022-08-10T06:00:11.247Z,102389.22
2022-08-10T06:02:31.588Z,102395.63
2022-08-10T06:04:56.929Z,102389.50
2022-08-10T06:07:22.108Z,102387.00
2022-08-10T06:09:59.293Z,102401.41
2022-08-10T06:12:29.897Z,102394.84
2022-08-10T06:15:06.051Z,102393.41
2022-08-10T06:17:35.590Z,102388.59
2022-08-10T06:20:00.817Z,102391.63
2022-08-10T06:22:27.337Z,102387.38
2022-08-10T06:25:23.142Z,102388.41
2022-08-10T06:27:37.564Z,102398.69
2022-08-10T06:30:02.566Z,102394.56
2022-08-10T06:32:28.824Z,102395.25
2022-08-10T06:34:56.596Z,102398.88
2022-08-10T06:37:25.013Z,102395.97
2022-08-10T06:39:49.117Z,102396.72
2022-08-10T06:42:19.516Z,102388.47
2022-08-10T06:44:52.315Z,102398.88
2022-08-10T06:47:22.941Z,102387.78
2022-08-10T06:49:48.936Z,102383.72
2022-08-10T06:52:18.527Z,102380.03
2022-08-10T06:54:43.384Z,102384.50
2022-08-10T06:57:17.623Z,102383.94
2022-08-10T06:59:46.496Z,102378.03
2022-08-10T07:02:17.503Z,102380.41
2022-08-10T07:04:46.936Z,102378.06
2022-08-10T07:07:18.480Z,102368.44
2022-08-10T07:09:43.295Z,102373.72
2022-08-10T07:12:10.636Z,102365.72
2022-08-10T07:14:35.876Z,102369.69
2022-08-10T07:17:01.124Z,102370.88
2022-08-10T07:19:27.016Z,102364.97
2022-08-10T07:21:52.297Z,102368.13
2022-08-10T07:24:24.775Z,102365.31
2022-08-10T07:26:52.032Z,102367.81
2022-08-10T07:29:26.635Z,102374.53
2022-08-10T07:32:01.930Z,102364.59
2022-08-10T07:34:29.869Z,102360.38
2022-08-10T07:36:55.168Z,102371.59
2022-08-10T07:40:01.938Z,102376.09
2022-08-10T07:42:06.311Z,102369.50
2022-08-10T07:44:31.411Z,102366.03
2022-08-10T07:46:57.520Z,102374.06
2022-08-10T07:49:26.276Z,102374.09
2022-08-10T07:51:54.596Z,102371.03
2022-08-10T07:54:21.055Z,102376.56
2022-08-10T07:56:50.206Z,102368.84
2022-08-10T07:59:24.763Z,102369.13
2022-08-10T08:01:54.053Z,102371.22
2022-08-10T08:04:19.898Z,102379.31
2022-08-10T08:06:46.180Z,102364.94
2022-08-10T08:09:10.902Z,102368.16
2022-08-10T08:11:36.699Z,102371.25
2022-08-10T08:14:02.310Z,102371.44
2022-08-10T08:16:28.100Z,102368.00
2022-08-10T08:19:28.038Z,102369.22
2022-08-10T08:24:08.955Z,102363.72
2022-08-10T08:24:31.426Z,102364.03
2022-08-10T08:26:58.438Z,102363.19
2022-08-10T08:29:23.165Z,102350.66
2022-08-10T08:31:59.141Z,102353.06
2022-08-10T08:34:27.208Z,102350.44
2022-08-10T08:36:54.949Z,102352.00
2022-08-10T08:39:22.764Z,102354.38
2022-08-10T08:42:17.591Z,102357.69
2022-08-10T08:44:56.862Z,102351.63
2022-08-10T08:48:06.821Z,102353.88
2022-08-10T08:50:55.263Z,102347.31
2022-08-10T08:54:02.596Z,102351.09
2022-08-10T08:56:28.376Z,102350.78
2022-08-10T08:59:07.480Z,102347.66
2022-08-10T09:01:55.665Z,102340.06
2022-08-10T09:04:42.212Z,102347.00
2022-08-10T09:07:59.947Z,102347.81
2022-08-10T09:10:35.330Z,102336.41
2022-08-10T09:13:09.595Z,102329.28
2022-08-10T09:15:42.270Z,102336.56
2022-08-10T09:18:15.412Z,102330.63
2022-08-10T09:20:49.419Z,102329.34
2022-08-10T09:24:01.511Z,102341.19
2022-08-10T09:26:18.016Z,102334.06
2022-08-10T09:28:44.413Z,102336.88
2022-08-10T09:31:26.231Z,102332.66
2022-08-10T09:36:22.799Z,102334.75
2022-08-10T09:37:03.267Z,102324.16
2022-08-10T09:40:06.906Z,102321.47
2022-08-10T09:42:42.292Z,102320.88
2022-08-10T09:45:14.391Z,102320.13
2022-08-10T09:48:01.904Z,102317.44
2022-08-10T09:51:22.404Z,102315.25
2022-08-10T09:53:40.388Z,102302.06
2022-08-10T09:56:22.358Z,102306.69
2022-08-10T09:59:26.816Z,102311.84
2022-08-10T10:02:03.836Z,102299.84
2022-08-10T10:04:40.604Z,102306.69
2022-08-10T10:07:08.341Z,102307.50
2022-08-10T10:09:39.716Z,102301.66
2022-08-10T10:12:17.681Z,102295.94
2022-08-10T10:15:24.976Z,102310.41
2022-08-10T10:18:20.146Z,102295.31
2022-08-10T10:20:57.407Z,102286.19
2022-08-10T10:23:40.224Z,102290.56
2022-08-10T10:26:23.828Z,102285.91
2022-08-10T10:29:44.862Z,102279.63
2022-08-10T10:31:56.179Z,102273.84
2022-08-10T10:34:34.628Z,102275.34
2022-08-10T10:37:01.656Z,102274.06
2022-08-10T10:39:27.211Z,102272.69
2022-08-10T10:42:04.556Z,102268.50
2022-08-10T10:44:42.346Z,102262.56
2022-08-10T10:47:26.490Z,102261.34
2022-08-10T10:49:58.340Z,102260.25
2022-08-10T10:52:40.186Z,102266.94
2022-08-10T10:55:17.592Z,102264.34
2022-08-10T10:57:58.858Z,102264.59
2022-08-10T11:00:27.460Z,102262.53
2022-08-10T11:03:08.238Z,102263.75
2022-08-10T11:05:44.952Z,102258.59
2022-08-10T11:08:15.445Z,102254.00
2022-08-10T11:10:47.322Z,102263.50
2022-08-10T11:14:25.726Z,102262.19
2022-08-10T11:16:38.361Z,102255.66
2022-08-10T11:19:17.185Z,102254.69
2022-08-10T11:22:01.565Z,102260.59
2022-08-10T11:24:44.377Z,102243.09
2022-08-10T11:27:22.755Z,102247.63
2022-08-10T11:30:00.656Z,102236.09
2022-08-10T11:32:34.485Z,102242.63
2022-08-10T11:35:14.251Z,102246.91
2022-08-10T11:38:29.657Z,102244.78
2022-08-10T11:40:37.217Z,102236.13
2022-08-10T11:43:12.560Z,102230.59
2022-08-10T11:45:51.471Z,102230.81
2022-08-10T11:48:53.066Z,102227.22
2022-08-10T11:51:22.612Z,102235.41
2022-08-10T11:53:55.316Z,102223.19
2022-08-10T11:56:29.510Z,102220.69
2022-08-10T11:59:17.492Z,102226.78
2022-08-10T12:01:45.782Z,102222.44
2022-08-10T12:04:11.971Z,102221.72
2022-08-10T12:06:54.686Z,102210.69
2022-08-10T12:10:11.307Z,102207.41
2022-08-10T12:12:06.936Z,102213.94
2022-08-10T12:14:35.937Z,102209.09
2022-08-10T12:17:11.517Z,102215.81
2022-08-10T12:20:01.639Z,102207.41
2022-08-10T12:22:34.935Z,102204.50
2022-08-10T12:25:02.447Z,102209.94
2022-08-10T12:27:40.397Z,102204.72
2022-08-10T12:30:08.692Z,102207.75
2022-08-10T12:32:46.844Z,102206.69
2022-08-10T12:35:22.088Z,102207.41
2022-08-10T12:38:06.018Z,102199.13
2022-08-10T12:40:36.369Z,102193.16
2022-08-10T12:44:04.346Z,102195.69
2022-08-10T12:46:06.993Z,102194.34
2022-08-10T12:48:39.305Z,102187.66
2022-08-10T12:51:11.032Z,102181.16
2022-08-10T12:53:49.280Z,102175.53
2022-08-10T12:56:21.381Z,102172.34
2022-08-10T12:58:57.771Z,102168.97
2022-08-10T13:01:26.064Z,102168.13
2022-08-10T13:04:21.505Z,102171.66
2022-08-10T13:06:50.083Z,102169.75
2022-08-10T13:09:14.452Z,102160.41
2022-08-10T13:12:38.520Z,102160.44
2022-08-10T13:14:33.092Z,102145.69
2022-08-10T13:16:59.427Z,102153.31
2022-08-10T13:19:25.390Z,102141.72
2022-08-10T13:21:50.980Z,102148.25
2022-08-10T13:24:17.686Z,102142.59
2022-08-10T13:27:24.387Z,102136.34
2022-08-10T13:29:39.069Z,102139.72
2022-08-10T13:32:10.114Z,102139.63
2022-08-10T13:34:44.889Z,102133.22
2022-08-10T13:37:11.212Z,102131.66
2022-08-10T13:39:57.820Z,102128.78
2022-08-10T13:42:31.874Z,102131.41
2022-08-10T13:44:58.923Z,102127.25
2022-08-10T13:47:48.057Z,102119.84
2022-08-10T13:50:21.509Z,102115.81
2022-08-10T13:53:01.351Z,102108.19
2022-08-10T13:55:46.079Z,102112.81
2022-08-10T13:58:14.553Z,102101.75
2022-08-10T14:00:41.082Z,102103.97
2022-08-10T14:03:11.571Z,102110.88
2022-08-10T14:05:44.143Z,102110.84
2022-08-10T14:08:15.313Z,102111.22
2022-08-10T14:11:02.275Z,102106.59
2022-08-10T14:13:29.236Z,102099.78
2022-08-10T14:15:53.845Z,102099.94
2022-08-10T14:18:19.269Z,102100.69
2022-08-10T14:20:45.577Z,102096.56
2022-08-10T14:23:12.600Z,102088.78
2022-08-10T14:25:49.512Z,102092.16
2022-08-10T14:28:13.760Z,102089.97
2022-08-10T14:30:41.365Z,102075.31
2022-08-10T14:33:05.727Z,102078.19
2022-08-10T14:36:19.562Z,102083.66
2022-08-10T14:38:21.500Z,102071.66
2022-08-10T14:40:52.043Z,102072.03
2022-08-10T14:43:28.529Z,102074.97
2022-08-10T14:46:01.611Z,102067.19
2022-08-10T14:48:32.031Z,102074.72
2022-08-10T14:50:58.366Z,102065.72
2022-08-10T14:53:28.779Z,102069.41
2022-08-10T14:55:57.747Z,102067.19
2022-08-10T14:58:26.422Z,102066.44
2022-08-10T15:00:51.092Z,102065.66
2022-08-10T15:03:59.042Z,102074.69
2022-08-10T15:06:03.867Z,102058.75
2022-08-10T15:08:36.937Z,102058.94
2022-08-10T15:11:03.311Z,102053.22
2022-08-10T15:13:34.456Z,102064.81
2022-08-10T15:16:12.594Z,102058.16
2022-08-10T15:18:42.116Z,102057.09
2022-08-10T15:21:28.405Z,102053.69
2022-08-10T15:24:05.248Z,102048.28
2022-08-10T15:26:30.964Z,102036.72
2022-08-10T15:29:23.426Z,102039.25
2022-08-10T15:31:59.701Z,102044.38
2022-08-10T15:34:42.297Z,102035.59
2022-08-10T15:37:36.364Z,102037.09
2022-08-10T15:40:24.888Z,102035.56
2022-08-10T15:43:01.235Z,102040.78
2022-08-10T15:45:25.196Z,102029.25
2022-08-10T15:48:02.930Z,102036.16
2022-08-10T15:50:32.091Z,102031.34
2022-08-10T15:53:02.902Z,102036.59
2022-08-10T15:55:42.550Z,102038.19
2022-08-10T15:58:12.413Z,102020.66
2022-08-10T16:00:47.581Z,102025.16
2022-08-10T16:03:24.605Z,102026.84
2022-08-10T16:06:01.090Z,102034.25
2022-08-10T16:08:30.602Z,102035.56
2022-08-10T16:11:00.675Z,102029.47
2022-08-10T16:13:50.995Z,102026.41
2022-08-10T16:16:19.357Z,102031.22
2022-08-10T16:18:47.312Z,102026.19
2022-08-10T16:21:17.964Z,102029.41
2022-08-10T16:23:45.651Z,102022.81
2022-08-10T16:26:34.792Z,102017.91
2022-08-10T16:29:04.653Z,102027.91
2022-08-10T16:31:32.400Z,102019.19
2022-08-10T16:34:00.900Z,102015.16
2022-08-10T16:36:38.424Z,102016.75
2022-08-10T16:39:03.496Z,102010.63
2022-08-10T16:42:03.385Z,102010.97
2022-08-10T16:44:18.375Z,102004.34
2022-08-10T16:46:45.711Z,102005.44
2022-08-10T16:49:11.292Z,102013.53
2022-08-10T16:51:36.028Z,102007.63
2022-08-10T16:54:02.833Z,102006.78
2022-08-10T16:56:49.020Z,102010.84
2022-08-10T16:59:17.864Z,102013.63
2022-08-10T17:01:51.479Z,102015.34
2022-08-10T17:04:19.601Z,102006.59
2022-08-10T17:06:56.132Z,102002.13
2022-08-10T17:09:26.303Z,102007.00
2022-08-10T17:11:55.855Z,102003.19
2022-08-10T17:14:25.828Z,102003.22
2022-08-10T17:16:55.929Z,102003.63
2022-08-10T17:19:24.759Z,102007.22
2022-08-10T17:21:52.925Z,102010.63
2022-08-10T17:24:18.470Z,102000.44
2022-08-10T17:26:44.887Z,102001.94
2022-08-10T17:29:59.050Z,102000.44
2022-08-10T17:32:10.080Z,102000.44
2022-08-10T17:34:40.383Z,101999.59
2022-08-10T17:37:07.401Z,101991.94
2022-08-10T17:39:36.770Z,102005.31
2022-08-10T17:42:06.621Z,102004.25
2022-08-10T17:44:38.046Z,102000.19
2022-08-10T17:47:11.042Z,101996.22
2022-08-10T17:49:37.620Z,101993.97
2022-08-10T17:52:04.603Z,101999.28
2022-08-10T17:54:32.910Z,101997.31
2022-08-10T17:57:00.648Z,101995.41
2022-08-10T17:59:26.212Z,102000.06
2022-08-10T18:01:58.565Z,101991.94
2022-08-10T18:04:26.708Z,102007.41
2022-08-10T18:06:54.925Z,101999.25
2022-08-10T18:09:32.171Z,101995.84
2022-08-10T18:12:03.533Z,102004.28
2022-08-10T18:14:35.929Z,102002.53
2022-08-10T18:17:09.870Z,102002.06
2022-08-10T18:19:34.840Z,102006.00
2022-08-10T18:21:59.614Z,102013.78
2022-08-10T18:24:23.491Z,102011.34
2022-08-10T18:26:51.471Z,102010.19
2022-08-10T18:29:22.323Z,102010.06
2022-08-10T18:31:48.280Z,102014.03
2022-08-10T18:34:18.817Z,102022.59
2022-08-10T18:36:44.576Z,102017.63
2022-08-10T18:39:12.456Z,102013.03
2022-08-10T18:42:04.671Z,102017.50
2022-08-10T18:44:33.717Z,102013.56
2022-08-10T18:47:02.150Z,102018.97
2022-08-10T18:49:35.215Z,102028.97
2022-08-10T18:52:03.227Z,102030.09
2022-08-10T18:54:44.348Z,102032.47
2022-08-10T18:57:22.644Z,102040.13
2022-08-10T19:00:11.332Z,102044.75
2022-08-10T19:02:55.500Z,102040.97
2022-08-10T19:05:48.162Z,102038.84
2022-08-10T19:08:57.792Z,102035.22
2022-08-10T19:11:48.047Z,102042.19
2022-08-10T19:14:19.516Z,102033.97
2022-08-10T19:16:55.930Z,102034.22
2022-08-10T19:19:36.164Z,102038.22
2022-08-10T19:22:08.479Z,102044.84
2022-08-10T19:24:46.840Z,102042.16
2022-08-10T19:27:20.911Z,102033.09
2022-08-10T19:30:11.166Z,102039.19
2022-08-10T19:33:04.087Z,102040.25
2022-08-10T19:36:04.635Z,102036.50
2022-08-10T19:38:38.315Z,102045.78
2022-08-10T19:41:31.942Z,102048.94
2022-08-10T19:44:05.297Z,102046.22
2022-08-10T19:46:41.102Z,102065.91
2022-08-10T19:49:19.094Z,102064.03
2022-08-10T19:51:53.559Z,102065.56
2022-08-10T19:54:27.868Z,102067.66
2022-08-10T19:57:10.825Z,102069.53
2022-08-10T20:00:15.003Z,102075.50
2022-08-10T20:02:45.807Z,102073.63
2022-08-10T20:05:22.212Z,102070.91
2022-08-10T20:07:54.486Z,102077.22
2022-08-10T20:10:26.874Z,102072.44
2022-08-10T20:13:01.979Z,102073.97
2022-08-10T20:15:42.420Z,102072.75
2022-08-10T20:18:13.081Z,102068.31
2022-08-10T20:20:42.354Z,102073.31
2022-08-10T20:23:18.861Z,102070.41
2022-08-10T20:25:50.007Z,102077.44
2022-08-10T20:28:21.758Z,102079.28
2022-08-10T20:30:53.439Z,102076.91
2022-08-10T20:33:26.987Z,102079.84
2022-08-10T20:35:57.629Z,102073.47
2022-08-10T20:38:27.459Z,102080.69
2022-08-10T20:41:07.985Z,102086.34
2022-08-10T20:43:43.139Z,102081.91
2022-08-10T20:46:18.163Z,102090.13
2022-08-10T20:48:51.604Z,102098.00
2022-08-10T20:51:21.166Z,102087.72
2022-08-10T20:53:51.915Z,102093.56
2022-08-10T20:56:33.554Z,102084.47
2022-08-10T21:00:02.586Z,102099.38
2022-08-10T21:02:48.750Z,102100.25
2022-08-10T21:05:22.600Z,102088.09
2022-08-10T21:08:03.267Z,102088.56
2022-08-10T21:10:50.173Z,102094.03
2022-08-10T21:13:45.526Z,102093.00
2022-08-10T21:16:30.174Z,102083.28
2022-08-10T21:19:26.904Z,102081.88
2022-08-10T21:22:15.726Z,102080.84
2022-08-10T21:24:52.359Z,102079.84
2022-08-10T21:27:35.108Z,102086.50
2022-08-10T21:30:09.170Z,102083.59
2022-08-10T21:32:44.885Z,102080.34
2022-08-10T21:35:37.846Z,102082.56
2022-08-10T21:38:08.461Z,102080.00
2022-08-10T21:44:41.356Z,102085.81
2022-08-10T21:47:41.805Z,102090.06
2022-08-10T21:50:45.717Z,102082.16
2022-08-10T21:53:45.025Z,102088.34
2022-08-10T21:56:34.896Z,102079.78
2022-08-10T21:59:22.531Z,102077.97
2022-08-10T22:02:08.378Z,102080.53
2022-08-10T22:04:52.975Z,102088.88
2022-08-10T22:07:38.283Z,102082.19
2022-08-10T22:10:25.814Z,102079.69
2022-08-10T22:13:08.373Z,102074.00
2022-08-10T22:16:09.896Z,102075.00
2022-08-10T22:19:02.910Z,102076.03
2022-08-10T22:22:04.673Z,102077.72
2022-08-10T22:24:59.824Z,102077.31
2022-08-10T22:27:51.017Z,102079.16
2022-08-10T22:30:36.010Z,102079.47
2022-08-10T22:31:25.113Z,102085.63
2022-08-10T22:33:44.784Z,102064.44
2022-08-10T22:37:19.517Z,102073.44
2022-08-10T22:40:19.244Z,102060.91
2022-08-10T22:43:09.987Z,102068.59
2022-08-10T22:45:54.559Z,102063.63
2022-08-10T22:48:35.931Z,102062.34
2022-08-10T22:51:12.384Z,102069.25
2022-08-10T22:54:00.884Z,102064.81
2022-08-10T22:56:42.859Z,102075.66
2022-08-10T22:59:07.879Z,102069.13
2022-08-10T23:01:42.197Z,102061.28
2022-08-10T23:04:35.618Z,102063.94
2022-08-10T23:07:08.044Z,102070.56
2022-08-10T23:09:35.899Z,102058.88
2022-08-10T23:12:04.507Z,102058.63
2022-08-10T23:14:35.027Z,102055.59
2022-08-10T23:17:16.258Z,102058.09
2022-08-10T23:19:46.305Z,102052.25
2022-08-10T23:22:13.538Z,102055.63
2022-08-10T23:24:46.465Z,102052.34
2022-08-10T23:27:37.746Z,102052.81
2022-08-10T23:30:09.984Z,102060.78
2022-08-10T23:32:36.880Z,102051.44
2022-08-10T23:36:27.231Z,102054.78
2022-08-10T23:37:55.512Z,102053.13
2022-08-10T23:40:23.303Z,102054.28
2022-08-10T23:42:50.843Z,102047.75
2022-08-10T23:45:25.236Z,102046.03
2022-08-10T23:47:53.989Z,102051.94
2022-08-10T23:50:20.527Z,102053.38
2022-08-10T23:52:52.879Z,102043.97
2022-08-10T23:55:27.416Z,102046.44
2022-08-10T23:57:56.463Z,102050.63
